createdAt,value
2018-12-26T00:01:53.713Z,79.50
2018-12-26T00:04:22.526Z,79.70
2018-12-26T00:06:51.284Z,79.70
2018-12-26T00:09:19.997Z,79.80
2018-12-26T00:11:48.734Z,79.80
2018-12-26T00:14:17.442Z,79.70
2018-12-26T00:16:46.157Z,78.90
2018-12-26T00:19:14.876Z,79.30
2018-12-26T00:21:43.580Z,79.30
2018-12-26T00:24:12.360Z,79.30
2018-12-26T00:26:41.080Z,78.90
2018-12-26T00:29:09.842Z,78.90
2018-12-26T00:31:38.621Z,79.00
2018-12-26T00:34:07.337Z,78.70
2018-12-26T00:36:36.067Z,78.80
2018-12-26T00:39:06.448Z,77.90
2018-12-26T00:41:35.129Z,78.50
2018-12-26T00:44:03.849Z,78.30
2018-12-26T00:46:32.608Z,78.10
2018-12-26T00:49:01.440Z,78.70
2018-12-26T00:51:30.182Z,78.20
2018-12-26T00:53:58.884Z,77.70
2018-12-26T00:56:27.668Z,77.80
2018-12-26T00:58:56.391Z,78.00
2018-12-26T01:01:25.180Z,78.80
2018-12-26T01:03:53.948Z,78.20
2018-12-26T01:06:22.629Z,78.00
2018-12-26T01:08:51.356Z,77.50
2018-12-26T01:11:20.095Z,77.80
2018-12-26T01:13:48.805Z,77.70
2018-12-26T01:16:17.520Z,77.40
2018-12-26T01:18:46.247Z,76.90
2018-12-26T01:21:15.004Z,77.50
2018-12-26T01:23:43.724Z,77.10
2018-12-26T01:26:19.121Z,76.80
2018-12-26T01:28:43.056Z,76.80
2018-12-26T01:31:11.774Z,77.10
2018-12-26T01:33:40.488Z,76.40
2018-12-26T01:36:09.272Z,77.00
2018-12-26T01:38:37.990Z,77.50
2018-12-26T01:41:06.783Z,76.70
2018-12-26T01:43:35.482Z,76.40
2018-12-26T01:46:06.057Z,76.90
2018-12-26T01:48:34.859Z,76.80
2018-12-26T01:51:03.655Z,77.00
2018-12-26T01:53:32.623Z,76.50
2018-12-26T01:56:01.306Z,76.70
2018-12-26T01:58:30.134Z,76.50
2018-12-26T02:00:58.845Z,76.80
2018-12-26T02:03:27.464Z,75.30
2018-12-26T02:05:56.202Z,76.60
2018-12-26T02:08:24.913Z,76.40
2018-12-26T02:10:53.603Z,76.30
2018-12-26T02:13:22.300Z,76.00
2018-12-26T02:15:50.999Z,76.70
2018-12-26T02:18:19.690Z,76.80
2018-12-26T02:20:48.401Z,76.90
2018-12-26T02:23:17.046Z,75.40
2018-12-26T02:25:45.748Z,75.90
2018-12-26T02:28:14.470Z,76.50
2018-12-26T02:30:43.187Z,76.50
2018-12-26T02:33:11.856Z,76.60
2018-12-26T02:35:40.643Z,76.30
2018-12-26T02:38:09.341Z,76.30
2018-12-26T02:40:38.307Z,75.70
2018-12-26T02:43:07.002Z,76.20
2018-12-26T02:45:35.703Z,76.40
2018-12-26T02:48:04.396Z,76.40
2018-12-26T02:50:33.193Z,76.40
2018-12-26T02:53:01.915Z,76.20
2018-12-26T02:55:30.559Z,76.50
2018-12-26T02:57:59.354Z,76.40
2018-12-26T03:00:28.148Z,76.20
2018-12-26T03:02:56.850Z,76.30
2018-12-26T03:05:25.542Z,76.40
2018-12-26T03:07:54.245Z,76.30
2018-12-26T03:10:22.974Z,76.30
2018-12-26T03:12:51.664Z,76.00
2018-12-26T03:15:20.474Z,76.30
2018-12-26T03:17:49.216Z,76.40
2018-12-26T03:20:17.905Z,75.70
2018-12-26T03:22:46.583Z,76.60
2018-12-26T03:25:15.298Z,76.20
2018-12-26T03:27:44.048Z,76.60
2018-12-26T03:30:12.831Z,76.50
2018-12-26T03:32:41.556Z,76.50
2018-12-26T03:35:10.280Z,76.50
2018-12-26T03:37:39.083Z,76.70
2018-12-26T03:40:08.773Z,76.20
2018-12-26T03:42:37.472Z,76.40
2018-12-26T03:45:06.434Z,76.60
2018-12-26T03:47:35.136Z,76.60
2018-12-26T03:50:04.359Z,76.70
2018-12-26T03:52:33.248Z,76.40
2018-12-26T03:55:01.944Z,76.50
2018-12-26T03:57:30.970Z,76.90
2018-12-26T03:59:59.761Z,76.30
2018-12-26T04:02:28.451Z,76.60
2018-12-26T04:04:57.178Z,76.90
2018-12-26T04:07:25.884Z,76.80
2018-12-26T04:09:54.597Z,76.90
2018-12-26T04:12:23.297Z,76.80
2018-12-26T04:14:51.994Z,76.80
2018-12-26T04:17:20.772Z,76.90
2018-12-26T04:19:49.589Z,76.70
2018-12-26T04:22:18.291Z,76.80
2018-12-26T04:24:47.282Z,76.60
2018-12-26T04:27:16.068Z,77.50
2018-12-26T04:29:44.879Z,76.90
2018-12-26T04:32:13.577Z,76.80
2018-12-26T04:34:42.369Z,77.00
2018-12-26T04:37:11.358Z,77.10
2018-12-26T04:39:39.986Z,77.20
2018-12-26T04:42:08.690Z,77.20
2018-12-26T04:44:37.448Z,77.20
2018-12-26T04:47:06.079Z,77.20
2018-12-26T04:49:34.804Z,77.10
2018-12-26T04:52:03.590Z,77.20
2018-12-26T04:54:32.374Z,77.20
2018-12-26T04:57:01.311Z,76.90
2018-12-26T04:59:30.029Z,77.00
2018-12-26T05:01:58.720Z,77.10
2018-12-26T05:04:27.439Z,77.00
2018-12-26T05:06:56.166Z,76.90
2018-12-26T05:09:24.884Z,76.90
2018-12-26T05:11:53.586Z,76.50
2018-12-26T05:14:22.322Z,76.80
2018-12-26T05:16:50.975Z,76.90
2018-12-26T05:19:19.606Z,76.90
2018-12-26T05:21:48.327Z,77.00
2018-12-26T05:24:17.021Z,77.00
2018-12-26T05:26:45.722Z,77.20
2018-12-26T05:29:14.434Z,77.00
2018-12-26T05:31:43.133Z,77.10
2018-12-26T05:34:11.761Z,77.00
2018-12-26T05:36:40.494Z,76.80
2018-12-26T05:39:09.184Z,76.70
2018-12-26T05:41:37.939Z,76.80
2018-12-26T05:44:06.648Z,76.80
2018-12-26T05:46:35.332Z,76.70
2018-12-26T05:49:04.037Z,76.90
2018-12-26T05:51:32.682Z,76.50
2018-12-26T05:54:01.434Z,76.60
2018-12-26T05:56:30.398Z,76.50
2018-12-26T05:58:59.097Z,76.50
2018-12-26T06:01:27.879Z,76.60
2018-12-26T06:04:08.929Z,76.90
2018-12-26T06:06:37.643Z,76.50
2018-12-26T06:09:07.260Z,76.80
2018-12-26T06:11:35.941Z,76.50
2018-12-26T06:14:04.702Z,76.60
2018-12-26T06:16:33.413Z,76.70
2018-12-26T06:19:02.123Z,76.40
2018-12-26T06:21:30.814Z,76.50
2018-12-26T06:23:59.466Z,76.60
2018-12-26T06:26:28.172Z,76.40
2018-12-26T06:28:56.782Z,76.70
2018-12-26T06:31:25.576Z,76.60
2018-12-26T06:33:57.741Z,76.90
2018-12-26T06:36:26.076Z,76.70
2018-12-26T06:38:54.787Z,76.70
2018-12-26T06:41:23.445Z,76.60
2018-12-26T06:43:52.145Z,76.60
2018-12-26T06:46:20.822Z,76.60
2018-12-26T06:48:49.635Z,76.70
2018-12-26T06:51:18.178Z,76.50
2018-12-26T06:53:46.898Z,76.50
2018-12-26T06:56:15.593Z,76.50
2018-12-26T06:58:44.377Z,76.30
2018-12-26T07:01:13.145Z,76.30
2018-12-26T07:03:41.830Z,76.40
2018-12-26T07:06:10.536Z,76.50
2018-12-26T07:08:39.248Z,76.50
2018-12-26T07:11:07.946Z,76.40
2018-12-26T07:13:36.505Z,76.50
2018-12-26T07:16:05.229Z,76.70
2018-12-26T07:18:33.921Z,76.80
2018-12-26T07:21:02.600Z,76.70
2018-12-26T07:23:31.319Z,76.80
2018-12-26T07:25:59.994Z,76.80
2018-12-26T07:28:28.703Z,76.80
2018-12-26T07:30:57.377Z,76.80
2018-12-26T07:33:26.079Z,77.00
2018-12-26T07:35:54.772Z,76.80
2018-12-26T07:38:23.323Z,76.70
2018-12-26T07:40:52.048Z,76.60
2018-12-26T07:43:20.734Z,76.80
2018-12-26T07:45:49.451Z,76.90
2018-12-26T07:48:18.181Z,77.10
2018-12-26T07:50:46.875Z,77.00
2018-12-26T07:53:15.581Z,77.00
2018-12-26T07:55:44.310Z,77.00
2018-12-26T07:58:17.510Z,77.00
2018-12-26T08:00:43.372Z,76.90
2018-12-26T08:03:12.104Z,77.00
2018-12-26T08:05:40.820Z,76.90
2018-12-26T08:08:09.543Z,76.80
2018-12-26T08:10:38.241Z,76.60
2018-12-26T08:13:06.960Z,76.80
2018-12-26T08:15:35.662Z,76.70
2018-12-26T08:18:04.370Z,76.60
2018-12-26T08:20:33.156Z,77.20
2018-12-26T08:23:01.885Z,76.50
2018-12-26T08:25:30.590Z,76.50
2018-12-26T08:27:59.320Z,76.70
2018-12-26T08:30:28.006Z,76.50
2018-12-26T08:32:56.765Z,76.20
2018-12-26T08:35:25.777Z,76.30
2018-12-26T08:37:54.439Z,76.30
2018-12-26T08:40:23.170Z,76.10
2018-12-26T08:42:51.812Z,76.00
2018-12-26T08:45:20.534Z,75.50
2018-12-26T08:47:49.278Z,75.10
2018-12-26T08:50:18.068Z,75.20
2018-12-26T08:52:46.784Z,74.80
2018-12-26T08:55:15.464Z,73.50
2018-12-26T08:57:44.233Z,72.30
2018-12-26T09:00:13.480Z,71.80
2018-12-26T09:02:42.177Z,69.20
2018-12-26T09:05:10.906Z,67.30
2018-12-26T09:07:39.611Z,66.80
2018-12-26T09:10:10.410Z,65.10
2018-12-26T09:12:39.197Z,63.20
2018-12-26T09:15:07.880Z,60.90
2018-12-26T09:17:36.585Z,57.10
2018-12-26T09:20:06.620Z,56.00
2018-12-26T09:22:35.303Z,58.40
2018-12-26T09:25:04.317Z,59.00
2018-12-26T09:27:33.243Z,61.00
2018-12-26T09:30:01.945Z,62.50
2018-12-26T09:32:30.668Z,61.00
2018-12-26T09:34:59.467Z,55.70
2018-12-26T09:37:28.353Z,47.50
2018-12-26T09:39:57.043Z,43.50
2018-12-26T09:42:25.837Z,39.20
2018-12-26T09:44:54.815Z,37.60
2018-12-26T09:47:23.909Z,37.70
2018-12-26T09:49:52.635Z,37.00
2018-12-26T09:52:21.357Z,36.30
2018-12-26T09:54:50.138Z,39.20
2018-12-26T09:57:18.903Z,42.00
2018-12-26T09:59:47.691Z,45.90
2018-12-26T10:02:16.391Z,48.10
2018-12-26T10:04:45.131Z,51.50
2018-12-26T10:07:13.847Z,52.90
2018-12-26T10:09:42.549Z,53.90
2018-12-26T10:12:11.270Z,53.40
2018-12-26T10:14:40.002Z,55.50
2018-12-26T10:17:08.721Z,56.10
2018-12-26T10:19:37.419Z,54.00
2018-12-26T10:22:06.192Z,53.50
2018-12-26T10:24:34.906Z,45.00
2018-12-26T10:27:03.633Z,45.20
2018-12-26T10:29:32.296Z,43.60
2018-12-26T10:32:01.019Z,43.20
2018-12-26T10:34:29.729Z,43.60
2018-12-26T10:36:58.546Z,45.70
2018-12-26T10:39:27.262Z,45.90
2018-12-26T10:41:56.072Z,46.60
2018-12-26T10:44:24.761Z,47.20
2018-12-26T10:46:53.451Z,46.50
2018-12-26T10:49:22.169Z,44.90
2018-12-26T10:51:50.878Z,41.30
2018-12-26T10:54:19.591Z,40.80
2018-12-26T10:56:48.376Z,44.30
2018-12-26T10:59:17.076Z,46.30
2018-12-26T11:01:45.812Z,48.10
2018-12-26T11:04:14.518Z,50.00
2018-12-26T11:06:43.130Z,51.40
2018-12-26T11:09:11.981Z,52.50
2018-12-26T11:11:40.688Z,52.80
2018-12-26T11:14:09.382Z,53.50
2018-12-26T11:16:38.591Z,53.90
2018-12-26T11:19:07.307Z,55.10
2018-12-26T11:21:36.057Z,55.60
2018-12-26T11:24:04.838Z,54.40
2018-12-26T11:26:33.578Z,54.70
2018-12-26T11:29:02.243Z,54.70
2018-12-26T11:31:30.991Z,54.40
2018-12-26T11:33:59.732Z,54.70
2018-12-26T11:36:28.444Z,54.70
2018-12-26T11:38:57.417Z,54.80
2018-12-26T11:41:26.139Z,54.10
2018-12-26T11:43:54.831Z,54.40
2018-12-26T11:46:23.542Z,51.60
2018-12-26T11:48:52.248Z,52.40
2018-12-26T11:51:20.960Z,53.20
2018-12-26T11:53:49.823Z,53.70
2018-12-26T11:56:18.598Z,53.70
2018-12-26T11:58:47.334Z,50.70
2018-12-26T12:01:16.024Z,53.20
2018-12-26T12:03:44.761Z,51.90
2018-12-26T12:06:13.432Z,52.90
2018-12-26T12:08:42.159Z,52.90
2018-12-26T12:11:10.866Z,53.20
2018-12-26T12:13:39.601Z,47.90
2018-12-26T12:16:08.280Z,47.90
2018-12-26T12:18:37.062Z,51.50
2018-12-26T12:21:05.758Z,50.80
2018-12-26T12:23:34.637Z,50.60
2018-12-26T12:26:03.374Z,51.60
2018-12-26T12:28:32.078Z,47.80
2018-12-26T12:31:00.770Z,51.00
2018-12-26T12:33:29.491Z,50.30
2018-12-26T12:35:58.192Z,50.80
2018-12-26T12:38:26.962Z,50.00
2018-12-26T12:40:55.780Z,49.70
2018-12-26T12:43:24.467Z,50.00
2018-12-26T12:45:53.253Z,49.70
2018-12-26T12:48:21.992Z,49.60
2018-12-26T12:50:50.701Z,50.30
2018-12-26T12:53:19.406Z,50.30
2018-12-26T12:55:48.246Z,49.80
2018-12-26T12:58:17.413Z,50.00
2018-12-26T13:00:46.152Z,50.40
2018-12-26T13:03:14.856Z,50.30
2018-12-26T13:05:43.639Z,47.90
2018-12-26T13:08:13.285Z,50.80
2018-12-26T13:10:42.047Z,50.70
2018-12-26T13:13:10.769Z,51.70
2018-12-26T13:15:39.453Z,51.10
2018-12-26T13:18:08.169Z,51.40
2018-12-26T13:20:36.976Z,51.70
2018-12-26T13:23:05.684Z,51.80
2018-12-26T13:25:34.386Z,51.90
2018-12-26T13:28:03.085Z,52.10
2018-12-26T13:30:31.780Z,52.60
2018-12-26T13:33:00.478Z,52.60
2018-12-26T13:35:29.190Z,52.50
2018-12-26T13:37:57.830Z,53.30
2018-12-26T13:40:27.928Z,53.40
2018-12-26T13:42:56.490Z,53.30
2018-12-26T13:45:25.200Z,53.30
2018-12-26T13:47:53.886Z,53.30
2018-12-26T13:50:22.638Z,53.20
2018-12-26T13:52:51.423Z,53.30
2018-12-26T13:55:20.140Z,53.20
2018-12-26T13:57:48.854Z,53.10
2018-12-26T14:00:17.634Z,53.70
2018-12-26T14:02:46.338Z,53.80
2018-12-26T14:05:15.036Z,54.00
2018-12-26T14:07:43.860Z,53.60
2018-12-26T14:10:12.577Z,54.70
2018-12-26T14:12:41.255Z,54.90
2018-12-26T14:15:10.552Z,55.10
2018-12-26T14:17:39.382Z,55.50
2018-12-26T14:20:08.195Z,55.30
2018-12-26T14:22:36.911Z,55.80
2018-12-26T14:25:07.913Z,56.00
2018-12-26T14:27:36.602Z,56.00
2018-12-26T14:30:11.362Z,56.00
2018-12-26T14:32:39.348Z,56.00
2018-12-26T14:35:08.069Z,56.20
2018-12-26T14:37:38.927Z,56.50
2018-12-26T14:40:07.758Z,56.90
2018-12-26T14:42:36.430Z,56.80
2018-12-26T14:45:05.310Z,57.20
2018-12-26T14:47:34.069Z,57.20
2018-12-26T14:50:02.957Z,57.50
2018-12-26T14:52:31.685Z,57.50
2018-12-26T14:55:00.390Z,57.70
2018-12-26T14:57:29.077Z,58.00
2018-12-26T14:59:57.797Z,58.10
2018-12-26T15:02:26.502Z,58.20
2018-12-26T15:04:55.228Z,58.20
2018-12-26T15:07:23.958Z,58.10
2018-12-26T15:09:52.688Z,58.20
2018-12-26T15:12:21.376Z,58.50
2018-12-26T15:14:49.928Z,58.50
2018-12-26T15:17:18.648Z,58.70
2018-12-26T15:19:47.342Z,59.10
2018-12-26T15:22:16.071Z,59.10
2018-12-26T15:24:44.789Z,59.70
2018-12-26T15:27:13.491Z,60.00
2018-12-26T15:29:42.182Z,60.50
2018-12-26T15:32:11.010Z,60.80
2018-12-26T15:34:39.673Z,61.10
2018-12-26T15:37:08.354Z,61.20
2018-12-26T15:39:37.152Z,61.20
2018-12-26T15:42:05.889Z,61.10
2018-12-26T15:44:34.572Z,61.10
2018-12-26T15:47:03.534Z,61.20
2018-12-26T15:49:32.302Z,61.50
2018-12-26T15:52:01.018Z,62.20
2018-12-26T15:54:29.647Z,62.40
2018-12-26T15:56:58.382Z,62.60
2018-12-26T15:59:27.060Z,62.80
2018-12-26T16:01:55.788Z,63.10
2018-12-26T16:04:24.498Z,63.70
2018-12-26T16:06:53.181Z,63.80
2018-12-26T16:09:21.938Z,64.10
2018-12-26T16:11:51.125Z,64.20
2018-12-26T16:14:19.842Z,64.50
2018-12-26T16:16:48.540Z,64.60
2018-12-26T16:19:17.275Z,64.60
2018-12-26T16:21:46.040Z,64.50
2018-12-26T16:24:14.582Z,64.70
2018-12-26T16:26:43.368Z,64.60
2018-12-26T16:29:12.068Z,64.60
2018-12-26T16:31:40.778Z,64.60
2018-12-26T16:34:09.540Z,64.40
2018-12-26T16:36:38.279Z,64.40
2018-12-26T16:39:06.976Z,64.50
2018-12-26T16:41:35.635Z,64.80
2018-12-26T16:44:04.316Z,64.40
2018-12-26T16:46:33.006Z,64.50
2018-12-26T16:49:01.836Z,64.60
2018-12-26T16:51:30.533Z,64.50
2018-12-26T16:54:18.622Z,64.40
2018-12-26T16:56:47.364Z,64.50
2018-12-26T16:59:16.103Z,64.70
2018-12-26T17:01:44.891Z,64.10
2018-12-26T17:04:13.707Z,64.20
2018-12-26T17:06:42.480Z,64.10
2018-12-26T17:09:11.180Z,63.60
2018-12-26T17:11:39.881Z,64.40
2018-12-26T17:14:08.645Z,63.60
2018-12-26T17:16:37.367Z,63.30
2018-12-26T17:19:06.013Z,63.20
2018-12-26T17:21:34.696Z,63.40
2018-12-26T17:24:03.413Z,63.00
2018-12-26T17:26:32.127Z,62.50
2018-12-26T17:29:02.484Z,62.60
2018-12-26T17:31:32.096Z,62.60
2018-12-26T17:34:01.040Z,61.30
2018-12-26T17:36:29.776Z,61.80
2018-12-26T17:38:58.532Z,62.80
2018-12-26T17:41:27.329Z,63.40
2018-12-26T17:43:56.035Z,63.70
2018-12-26T17:46:24.801Z,64.10
2018-12-26T17:48:53.491Z,63.20
2018-12-26T17:51:22.204Z,62.80
2018-12-26T17:53:53.922Z,63.10
2018-12-26T17:56:31.697Z,63.10
2018-12-26T17:59:09.091Z,62.50
2018-12-26T18:01:56.005Z,62.00
2018-12-26T18:04:24.662Z,62.60
2018-12-26T18:06:53.441Z,62.30
2018-12-26T18:09:22.140Z,62.10
2018-12-26T18:11:51.407Z,62.10
2018-12-26T18:14:20.239Z,62.20
2018-12-26T18:16:48.949Z,62.30
2018-12-26T18:19:17.726Z,61.90
2018-12-26T18:21:46.464Z,61.60
2018-12-26T18:24:15.177Z,61.40
2018-12-26T18:26:43.926Z,60.80
2018-12-26T18:29:12.606Z,60.80
2018-12-26T18:31:41.328Z,60.90
2018-12-26T18:34:10.042Z,61.40
2018-12-26T18:36:38.738Z,58.90
2018-12-26T18:39:07.744Z,58.50
2018-12-26T18:41:36.532Z,60.10
2018-12-26T18:44:05.246Z,61.00
2018-12-26T18:46:34.054Z,60.10
2018-12-26T18:49:02.874Z,61.00
2018-12-26T18:51:31.599Z,61.00
2018-12-26T18:54:00.319Z,60.90
2018-12-26T18:56:28.922Z,61.00
2018-12-26T18:58:57.639Z,59.70
2018-12-26T19:01:45.625Z,60.20
2018-12-26T19:04:14.601Z,60.50
2018-12-26T19:06:43.366Z,60.30
2018-12-26T19:09:12.061Z,59.80
2018-12-26T19:11:40.716Z,61.10
2018-12-26T19:14:09.409Z,58.50
2018-12-26T19:16:38.208Z,60.00
2018-12-26T19:19:06.920Z,60.50
2018-12-26T19:21:35.603Z,60.70
2018-12-26T19:24:04.243Z,61.10
2018-12-26T19:26:32.991Z,60.50
2018-12-26T19:29:01.707Z,61.20
2018-12-26T19:31:30.426Z,61.00
2018-12-26T19:34:00.779Z,61.00
2018-12-26T19:36:29.463Z,61.20
2018-12-26T19:38:58.252Z,61.30
2018-12-26T19:41:26.952Z,61.90
2018-12-26T19:43:55.664Z,61.20
2018-12-26T19:46:24.364Z,61.20
2018-12-26T19:48:53.070Z,61.00
2018-12-26T19:51:21.787Z,61.20
2018-12-26T19:53:50.488Z,61.20
2018-12-26T19:56:19.591Z,61.30
2018-12-26T19:58:48.345Z,61.20
2018-12-26T20:01:17.048Z,61.50
2018-12-26T20:03:45.683Z,61.20
2018-12-26T20:06:14.372Z,61.90
2018-12-26T20:08:43.085Z,62.50
2018-12-26T20:11:11.772Z,61.80
2018-12-26T20:13:40.469Z,62.40
2018-12-26T20:16:09.186Z,62.40
2018-12-26T20:18:37.883Z,62.50
2018-12-26T20:21:06.611Z,62.50
2018-12-26T20:23:35.341Z,63.00
2018-12-26T20:26:03.998Z,63.00
2018-12-26T20:28:32.809Z,62.40
2018-12-26T20:31:01.516Z,63.20
2018-12-26T20:33:30.227Z,63.60
2018-12-26T20:35:58.949Z,63.20
2018-12-26T20:38:27.584Z,63.10
2018-12-26T20:40:56.296Z,63.50
2018-12-26T20:43:25.006Z,63.60
2018-12-26T20:45:53.716Z,63.80
2018-12-26T20:48:22.403Z,64.00
2018-12-26T20:50:51.158Z,64.20
2018-12-26T20:53:19.859Z,64.30
2018-12-26T20:55:48.823Z,64.40
2018-12-26T20:58:17.528Z,64.70
2018-12-26T21:00:46.232Z,65.00
2018-12-26T21:03:14.956Z,65.30
2018-12-26T21:05:43.683Z,65.60
2018-12-26T21:08:12.445Z,66.10
2018-12-26T21:10:41.152Z,66.20
2018-12-26T21:13:09.903Z,66.60
2018-12-26T21:15:38.667Z,66.80
2018-12-26T21:18:07.376Z,67.20
2018-12-26T21:20:36.098Z,67.40
2018-12-26T21:23:04.960Z,67.50
2018-12-26T21:25:33.612Z,69.80
2018-12-26T21:28:02.327Z,70.00
2018-12-26T21:30:31.024Z,68.70
2018-12-26T21:32:59.710Z,69.00
2018-12-26T21:35:28.436Z,71.00
2018-12-26T21:37:57.110Z,70.10
2018-12-26T21:40:25.831Z,71.10
2018-12-26T21:42:54.558Z,71.00
2018-12-26T21:45:24.863Z,73.00
2018-12-26T21:47:53.809Z,71.50
2018-12-26T21:50:22.468Z,72.00
2018-12-26T21:52:51.198Z,73.60
2018-12-26T21:55:19.958Z,73.90
2018-12-26T21:57:48.605Z,77.60
2018-12-26T22:00:17.298Z,75.50
2018-12-26T22:02:45.998Z,75.70
2018-12-26T22:05:14.723Z,80.40
2018-12-26T22:07:43.494Z,77.20
2018-12-26T22:10:12.210Z,76.90
2018-12-26T22:12:40.895Z,78.40
2018-12-26T22:15:09.608Z,77.10
2018-12-26T22:17:38.377Z,80.40
2018-12-26T22:20:07.511Z,78.30
2018-12-26T22:22:36.194Z,77.80
2018-12-26T22:25:05.535Z,79.20
2018-12-26T22:27:34.189Z,80.80
2018-12-26T22:30:02.912Z,82.20
2018-12-26T22:32:31.604Z,80.40
2018-12-26T22:35:00.288Z,79.60
2018-12-26T22:37:29.000Z,82.90
2018-12-26T22:39:57.722Z,82.80
2018-12-26T22:42:26.414Z,80.90
2018-12-26T22:44:55.114Z,85.00
2018-12-26T22:47:23.730Z,82.90
2018-12-26T22:49:52.438Z,82.70
2018-12-26T22:52:21.150Z,82.40
2018-12-26T22:54:49.842Z,86.40
2018-12-26T22:57:18.502Z,82.40
2018-12-26T22:59:47.205Z,85.00
2018-12-26T23:02:15.831Z,83.50
2018-12-26T23:04:44.552Z,85.70
2018-12-26T23:07:13.252Z,85.60
2018-12-26T23:09:41.952Z,86.60
2018-12-26T23:12:10.664Z,85.80
2018-12-26T23:14:39.390Z,90.30
2018-12-26T23:17:08.112Z,86.70
2018-12-26T23:19:36.830Z,87.60
2018-12-26T23:22:05.537Z,89.90
2018-12-26T23:24:34.214Z,89.80
2018-12-26T23:27:02.912Z,88.10
2018-12-26T23:29:31.633Z,89.90
2018-12-26T23:32:00.339Z,88.90
2018-12-26T23:34:29.115Z,89.90
2018-12-26T23:36:57.822Z,89.60
2018-12-26T23:39:26.605Z,90.90
2018-12-26T23:41:55.292Z,90.70
2018-12-26T23:44:23.988Z,90.60
2018-12-26T23:46:52.762Z,92.00
2018-12-26T23:49:21.577Z,92.00
2018-12-26T23:51:50.266Z,93.00
2018-12-26T23:54:18.995Z,91.40
2018-12-26T23:56:47.673Z,90.90
2018-12-26T23:59:16.313Z,92.30
